PWSweather.com
Personal Weather Stations
Station Observations
CRNINF
Briga AltaIT

Briga AltaIT

Lat: 44.1474858, Lon: 7.7359028

Elevation: 4542.8

Station Type: PCE-FWS20

Latest ConditionsUpdated 10:15:08 PM GMT+01:01 Thursday, Oct 18, 2018
Currently Today's Max Today's Min Today's Average
Temperature 53.6°F12.0°C 57.4°F14.1°C 49.3°F9.6°C 53.7°F12.1°C
Dew Point 43.3°F6.3°C 47.8°F8.8°C 43.1°F6.2°C 45.2°F7.3°C
Winds 5.1 mph WNW8.2 kmh WNW 5.5 mph -8.9 kmh - - 3.4 mph 5.5 kmh
Wind Gusts 9.8 mph15.8 kmh 16.8 mph27.0 kmh - -
Humidity 68% 86% 66% 73%
Pressure 30.15 in1021.0 mb 30.15 in1021.0 mb 30.10 in1019.3 mb -
Precipitation - 0.26 in6.6 mm - -
Hour Temp Dew Point Humidity Winds Wind Gusts Pressure Precip Precip Rate Daily Precip Total
10:15 PM 53.6°F12.0°C 43.3°F6.3°C 68% 5.1 mph WNW8.2 kmh WNW 9.8 mph15.8 kmh 30.15 in1021.0 mb 0.00 in0.0 mm 0.00 in0.0 mm 0.26 in6.6 mm
10:00 PM 53.8°F12.1°C 43.1°F6.2°C 67% 4.7 mph WNW7.6 kmh WNW 10.7 mph17.2 kmh 30.15 in1021.0 mb 0.00 in0.0 mm 0.00 in0.0 mm 0.26 in6.6 mm
09:45 PM 53.4°F11.9°C 43.5°F6.4°C 69% 3.8 mph NW6.1 kmh NW 10.7 mph17.2 kmh 30.14 in1020.7 mb 0.00 in0.0 mm 0.00 in0.0 mm 0.26 in6.6 mm
09:30 PM 53.8°F12.1°C 43.5°F6.4°C 68% 4.5 mph WSW7.2 kmh WSW 10.7 mph17.2 kmh 30.14 in1020.7 mb 0.00 in0.0 mm 0.00 in0.0 mm 0.26 in6.6 mm
09:15 PM 53.6°F12.0°C 43.7°F6.5°C 69% 3.6 mph WNW5.8 kmh WNW 11.4 mph18.3 kmh 30.14 in1020.7 mb 0.00 in0.0 mm 0.00 in0.0 mm 0.26 in6.6 mm
09:00 PM 53.8°F12.1°C 43.5°F6.4°C 68% 4.6 mph W7.4 kmh W 13.0 mph20.9 kmh 30.14 in1020.7 mb 0.00 in0.0 mm 0.00 in0.0 mm 0.26 in6.6 mm
08:45 PM 53.8°F12.1°C 43.5°F6.4°C 68% 3.8 mph WNW6.1 kmh WNW 8.3 mph13.4 kmh 30.13 in1020.3 mb 0.00 in0.0 mm 0.00 in0.0 mm 0.26 in6.6 mm
08:30 PM 53.4°F11.9°C 44.3°F6.8°C 71% 3.4 mph S5.5 kmh S 8.3 mph13.4 kmh 30.13 in1020.3 mb 0.00 in0.0 mm 0.00 in0.0 mm 0.26 in6.6 mm
08:15 PM 53.8°F12.1°C 43.9°F6.6°C 69% 4.5 mph WSW7.2 kmh WSW 16.8 mph27.0 kmh 30.13 in1020.3 mb 0.00 in0.0 mm 0.00 in0.0 mm 0.26 in6.6 mm
08:00 PM 53.6°F12.0°C 44.1°F6.7°C 70% 3.4 mph S5.5 kmh S 9.8 mph15.8 kmh 30.12 in1020.0 mb 0.00 in0.0 mm 0.00 in0.0 mm 0.26 in6.6 mm
07:45 PM 53.4°F11.9°C 44.3°F6.8°C 71% 3.4 mph NW5.5 kmh NW 9.8 mph15.8 kmh 30.13 in1020.3 mb 0.00 in0.0 mm 0.00 in0.0 mm 0.26 in6.6 mm
07:30 PM 53.6°F12.0°C 44.1°F6.7°C 70% 2.8 mph WSW4.5 kmh WSW 8.3 mph13.4 kmh 30.13 in1020.3 mb 0.00 in0.0 mm 0.00 in0.0 mm 0.26 in6.6 mm
07:15 PM 53.2°F11.8°C 44.5°F6.9°C 72% 2.6 mph NW4.2 kmh NW 7.6 mph12.2 kmh 30.13 in1020.3 mb 0.00 in0.0 mm 0.00 in0.0 mm 0.26 in6.6 mm
07:00 PM 53.2°F11.8°C 44.5°F6.9°C 72% 2.7 mph WNW4.3 kmh WNW 8.3 mph13.4 kmh 30.12 in1020.0 mb 0.00 in0.0 mm 0.00 in0.0 mm 0.26 in6.6 mm
06:45 PM 53.1°F11.7°C 44.3°F6.8°C 72% 1.9 mph NW3.1 kmh NW 5.4 mph8.7 kmh 30.13 in1020.3 mb 0.00 in0.0 mm 0.00 in0.0 mm 0.26 in6.6 mm
06:30 PM 53.4°F11.9°C 44.3°F6.8°C 71% 1.6 mph NNE2.6 kmh NNE 6.0 mph9.7 kmh 30.12 in1020.0 mb 0.00 in0.0 mm 0.00 in0.0 mm 0.26 in6.6 mm
06:15 PM 53.6°F12.0°C 44.1°F6.7°C 70% 2.5 mph NW4.0 kmh NW 9.8 mph15.8 kmh 30.12 in1020.0 mb 0.00 in0.0 mm 0.00 in0.0 mm 0.26 in6.6 mm
06:00 PM 54.0°F12.2°C 44.0°F6.7°C 69% 3.5 mph NW5.6 kmh NW 13.0 mph20.9 kmh 30.12 in1020.0 mb 0.00 in0.0 mm 0.00 in0.0 mm 0.26 in6.6 mm
05:45 PM 53.4°F11.9°C 44.3°F6.8°C 71% 3.6 mph WNW5.8 kmh WNW 6.9 mph11.1 kmh 30.11 in1019.6 mb 0.00 in0.0 mm 0.00 in0.0 mm 0.26 in6.6 mm
05:30 PM 54.3°F12.4°C 44.4°F6.9°C 69% 3.3 mph WNW5.3 kmh WNW 9.8 mph15.8 kmh 30.11 in1019.6 mb 0.00 in0.0 mm 0.00 in0.0 mm 0.26 in6.6 mm
05:15 PM 54.3°F12.4°C 44.8°F7.1°C 70% 3.6 mph WNW5.8 kmh WNW 12.1 mph19.5 kmh 30.11 in1019.6 mb 0.00 in0.0 mm 0.00 in0.0 mm 0.26 in6.6 mm
05:00 PM 54.7°F12.6°C 44.7°F7.1°C 69% 4.4 mph WNW7.1 kmh WNW 11.4 mph18.3 kmh 30.11 in1019.6 mb 0.01 in0.3 mm 0.00 in0.0 mm 0.26 in6.6 mm
04:45 PM 54.5°F12.5°C 45.3°F7.4°C 71% 3.6 mph NW5.8 kmh NW 10.7 mph17.2 kmh 30.11 in1019.6 mb 0.06 in1.5 mm 0.00 in0.0 mm 0.26 in6.6 mm
04:30 PM 54.9°F12.7°C 45.3°F7.4°C 70% 3.4 mph NW5.5 kmh NW 9.8 mph15.8 kmh 30.11 in1019.6 mb 0.06 in1.5 mm 0.00 in0.0 mm 0.26 in6.6 mm
04:15 PM 54.9°F12.7°C 45.6°F7.6°C 71% 2.5 mph NW4.0 kmh NW 7.6 mph12.2 kmh 30.11 in1019.6 mb 0.06 in1.5 mm 0.04 in1.0 mm 0.26 in6.6 mm
04:00 PM 55.2°F12.9°C 45.6°F7.6°C 70% 4.3 mph W6.9 kmh W 13.6 mph21.9 kmh 30.11 in1019.6 mb 0.05 in1.3 mm 0.07 in1.8 mm 0.25 in6.4 mm
03:45 PM 55.8°F13.2°C 45.8°F7.7°C 69% 4.6 mph WSW7.4 kmh WSW 12.1 mph19.5 kmh 30.11 in1019.6 mb 0.00 in0.0 mm 0.00 in0.0 mm 0.20 in5.1 mm
03:30 PM 56.3°F13.5°C 45.9°F7.7°C 68% 3.7 mph W6.0 kmh W 8.3 mph13.4 kmh 30.11 in1019.6 mb 0.00 in0.0 mm 0.00 in0.0 mm 0.20 in5.1 mm
03:15 PM 56.7°F13.7°C 46.2°F7.9°C 68% 3.7 mph WSW6.0 kmh WSW 9.2 mph14.8 kmh 30.11 in1019.6 mb 0.00 in0.0 mm 0.00 in0.0 mm 0.20 in5.1 mm
03:00 PM 56.8°F13.8°C 46.0°F7.8°C 67% 4.1 mph NW6.6 kmh NW 10.7 mph17.2 kmh 30.11 in1019.6 mb 0.00 in0.0 mm 0.00 in0.0 mm 0.20 in5.1 mm
02:45 PM 57.2°F14.0°C 46.0°F7.8°C 66% 3.5 mph NW5.6 kmh NW 8.3 mph13.4 kmh 30.11 in1019.6 mb 0.00 in0.0 mm 0.00 in0.0 mm 0.20 in5.1 mm
02:30 PM 57.4°F14.1°C 46.5°F8.1°C 67% 1.9 mph NW3.1 kmh NW 6.0 mph9.7 kmh 30.12 in1020.0 mb 0.01 in0.3 mm 0.00 in0.0 mm 0.20 in5.1 mm
02:15 PM 57.2°F14.0°C 46.4°F8.0°C 67% 3.4 mph WSW5.5 kmh WSW 10.7 mph17.2 kmh 30.11 in1019.6 mb 0.01 in0.3 mm 0.00 in0.0 mm 0.20 in5.1 mm
02:00 PM 57.2°F14.0°C 46.4°F8.0°C 67% 4.1 mph W6.6 kmh W 8.3 mph13.4 kmh 30.11 in1019.6 mb 0.02 in0.5 mm 0.00 in0.0 mm 0.20 in5.1 mm
01:45 PM 57.0°F13.9°C 47.0°F8.3°C 69% 3.9 mph WNW6.3 kmh WNW 10.7 mph17.2 kmh 30.11 in1019.6 mb 0.02 in0.5 mm 0.00 in0.0 mm 0.20 in5.1 mm
01:30 PM 56.3°F13.5°C 46.7°F8.2°C 70% 5.5 mph NW8.9 kmh NW 14.5 mph23.3 kmh 30.12 in1020.0 mb 0.05 in1.3 mm 0.04 in1.0 mm 0.19 in4.8 mm
01:15 PM 56.8°F13.8°C 47.2°F8.4°C 70% 5.4 mph WSW8.7 kmh WSW 15.2 mph24.5 kmh 30.12 in1020.0 mb 0.04 in1.0 mm 0.00 in0.0 mm 0.18 in4.6 mm
01:00 PM 56.8°F13.8°C 47.5°F8.6°C 71% 4.7 mph WNW7.6 kmh WNW 13.0 mph20.9 kmh 30.11 in1019.6 mb 0.05 in1.3 mm 0.00 in0.0 mm 0.18 in4.6 mm
12:45 PM 57.4°F14.1°C 47.3°F8.5°C 69% 4.2 mph W6.8 kmh W 10.7 mph17.2 kmh 30.12 in1020.0 mb 0.14 in3.6 mm 0.12 in3.0 mm 0.18 in4.6 mm
12:30 PM 56.3°F13.5°C 47.8°F8.8°C 73% 4.8 mph W7.7 kmh W 13.0 mph20.9 kmh 30.11 in1019.6 mb 0.11 in2.8 mm 0.00 in0.0 mm 0.14 in3.6 mm
12:15 PM 56.1°F13.4°C 47.2°F8.4°C 72% 5.4 mph WSW8.7 kmh WSW 16.8 mph27.0 kmh 30.13 in1020.3 mb 0.11 in2.8 mm 0.08 in2.0 mm 0.14 in3.6 mm
12:00 PM 55.2°F12.9°C 47.1°F8.4°C 74% 5.1 mph WSW8.2 kmh WSW 12.1 mph19.5 kmh 30.13 in1020.3 mb 0.09 in2.3 mm 0.12 in3.0 mm 0.13 in3.3 mm
11:45 AM 55.4°F13.0°C 46.5°F8.1°C 72% 4.4 mph W7.1 kmh W 10.7 mph17.2 kmh 30.13 in1020.3 mb 0.00 in0.0 mm 0.00 in0.0 mm 0.04 in1.0 mm
11:30 AM 54.7°F12.6°C 46.9°F8.3°C 75% 4.4 mph NW7.1 kmh NW 10.7 mph17.2 kmh 30.13 in1020.3 mb 0.00 in0.0 mm 0.00 in0.0 mm 0.04 in1.0 mm
11:15 AM 55.4°F13.0°C 46.2°F7.9°C 71% 4.7 mph WNW7.6 kmh WNW 10.7 mph17.2 kmh 30.13 in1020.3 mb 0.01 in0.3 mm 0.00 in0.0 mm 0.04 in1.0 mm
11:00 AM 55.2°F12.9°C 46.7°F8.2°C 73% 3.6 mph W5.8 kmh W 9.2 mph14.8 kmh 30.13 in1020.3 mb 0.01 in0.3 mm 0.00 in0.0 mm 0.04 in1.0 mm
10:45 AM 56.1°F13.4°C 46.1°F7.8°C 69% 3.6 mph W5.8 kmh W 13.6 mph21.9 kmh 30.13 in1020.3 mb 0.01 in0.3 mm 0.00 in0.0 mm 0.04 in1.0 mm
10:30 AM 55.8°F13.2°C 45.8°F7.7°C 69% 3.6 mph WSW5.8 kmh WSW 9.2 mph14.8 kmh 30.13 in1020.3 mb 0.04 in1.0 mm 0.08 in2.0 mm 0.04 in1.0 mm
10:15 AM 54.7°F12.6°C 45.1°F7.3°C 70% 3.7 mph NW6.0 kmh NW 9.8 mph15.8 kmh 30.13 in1020.3 mb 0.02 in0.5 mm 0.00 in0.0 mm 0.02 in0.5 mm
10:00 AM 54.5°F12.5°C 44.9°F7.2°C 70% 3.9 mph W6.3 kmh W 9.8 mph15.8 kmh 30.13 in1020.3 mb 0.02 in0.5 mm 0.00 in0.0 mm 0.02 in0.5 mm
09:45 AM 55.2°F12.9°C 45.2°F7.3°C 69% 4.1 mph W6.6 kmh W 9.2 mph14.8 kmh 30.13 in1020.3 mb 0.02 in0.5 mm 0.08 in2.0 mm 0.02 in0.5 mm
09:30 AM 56.7°F13.7°C 46.2°F7.9°C 68% 3.6 mph WNW5.8 kmh WNW 9.2 mph14.8 kmh 30.13 in1020.3 mb 0.00 in0.0 mm 0.00 in0.0 mm 0.00 in0.0 mm
09:15 AM 55.0°F12.8°C 46.2°F7.9°C 72% 3.7 mph N6.0 kmh N 10.7 mph17.2 kmh 30.13 in1020.3 mb 0.00 in0.0 mm 0.00 in0.0 mm 0.00 in0.0 mm
09:00 AM 53.6°F12.0°C 46.2°F7.9°C 76% 3.8 mph NW6.1 kmh NW 9.2 mph14.8 kmh 30.12 in1020.0 mb 0.00 in0.0 mm 0.00 in0.0 mm 0.00 in0.0 mm
08:45 AM 52.7°F11.5°C 46.4°F8.0°C 79% 2.5 mph NNW4.0 kmh NNW 9.2 mph14.8 kmh 30.12 in1020.0 mb 0.00 in0.0 mm 0.00 in0.0 mm 0.00 in0.0 mm
08:30 AM 51.8°F11.0°C 45.8°F7.7°C 80% 2.7 mph NNW4.3 kmh NNW 9.2 mph14.8 kmh 30.12 in1020.0 mb 0.00 in0.0 mm 0.00 in0.0 mm 0.00 in0.0 mm
08:15 AM 51.4°F10.8°C 45.5°F7.5°C 80% 3.1 mph W5.0 kmh W 8.3 mph13.4 kmh 30.12 in1020.0 mb 0.00 in0.0 mm 0.00 in0.0 mm 0.00 in0.0 mm
08:00 AM 50.9°F10.5°C 45.6°F7.6°C 82% 1.5 mph WNW2.4 kmh WNW 4.5 mph7.2 kmh 30.11 in1019.6 mb 0.00 in0.0 mm 0.00 in0.0 mm 0.00 in0.0 mm
07:45 AM 50.7°F10.4°C 45.4°F7.4°C 82% 2.0 mph NW3.2 kmh NW 5.4 mph8.7 kmh 30.11 in1019.6 mb 0.00 in0.0 mm 0.00 in0.0 mm 0.00 in0.0 mm
07:30 AM 49.8°F9.9°C 45.5°F7.5°C 85% 2.4 mph WNW3.9 kmh WNW 8.3 mph13.4 kmh 30.11 in1019.6 mb 0.00 in0.0 mm 0.00 in0.0 mm 0.00 in0.0 mm
07:15 AM 49.6°F9.8°C 45.3°F7.4°C 85% 2.7 mph WNW4.3 kmh WNW 6.0 mph9.7 kmh 30.11 in1019.6 mb 0.00 in0.0 mm 0.00 in0.0 mm 0.00 in0.0 mm
07:00 AM 50.2°F10.1°C 45.2°F7.3°C 83% 2.9 mph NNW4.7 kmh NNW 7.6 mph12.2 kmh 30.11 in1019.6 mb 0.00 in0.0 mm 0.00 in0.0 mm 0.00 in0.0 mm
06:45 AM 49.3°F9.6°C 45.3°F7.4°C 86% 1.5 mph NNW2.4 kmh NNW 4.5 mph7.2 kmh 30.11 in1019.6 mb 0.00 in0.0 mm 0.00 in0.0 mm 0.00 in0.0 mm
06:30 AM 50.0°F10.0°C 45.0°F7.2°C 83% 1.8 mph NW2.9 kmh NW 4.5 mph7.2 kmh 30.11 in1019.6 mb 0.00 in0.0 mm 0.00 in0.0 mm 0.00 in0.0 mm
06:15 AM 49.5°F9.7°C 45.1°F7.3°C 85% 0.8 mph N1.3 kmh N 3.1 mph5.0 kmh 30.10 in1019.3 mb 0.00 in0.0 mm 0.00 in0.0 mm 0.00 in0.0 mm
06:00 AM 49.6°F9.8°C 45.0°F7.2°C 84% 1.4 mph N2.3 kmh N 4.5 mph7.2 kmh 30.10 in1019.3 mb 0.00 in0.0 mm 0.00 in0.0 mm 0.00 in0.0 mm
05:45 AM 50.2°F10.1°C 44.6°F7.0°C 81% 1.2 mph NNE1.9 kmh NNE 5.4 mph8.7 kmh 30.11 in1019.6 mb 0.00 in0.0 mm 0.00 in0.0 mm 0.00 in0.0 mm
05:30 AM 50.5°F10.3°C 44.6°F7.0°C 80% 2.1 mph NW3.4 kmh NW 6.9 mph11.1 kmh 30.10 in1019.3 mb 0.00 in0.0 mm 0.00 in0.0 mm 0.00 in0.0 mm
05:15 AM 50.7°F10.4°C 44.1°F6.7°C 78% 3.6 mph NW5.8 kmh NW 9.2 mph14.8 kmh 30.11 in1019.6 mb 0.00 in0.0 mm 0.00 in0.0 mm 0.00 in0.0 mm
05:00 AM 50.5°F10.3°C 43.9°F6.6°C 78% 3.6 mph WNW5.8 kmh WNW 9.2 mph14.8 kmh 30.11 in1019.6 mb 0.00 in0.0 mm 0.00 in0.0 mm 0.00 in0.0 mm
04:45 AM 50.7°F10.4°C 44.1°F6.7°C 78% 2.6 mph NW4.2 kmh NW 9.2 mph14.8 kmh 30.11 in1019.6 mb 0.00 in0.0 mm 0.00 in0.0 mm 0.00 in0.0 mm
04:30 AM 50.7°F10.4°C 44.1°F6.7°C 78% 3.8 mph NW6.1 kmh NW 9.8 mph15.8 kmh 30.11 in1019.6 mb 0.00 in0.0 mm 0.00 in0.0 mm 0.00 in0.0 mm
04:15 AM 50.2°F10.1°C 44.3°F6.8°C 80% 2.0 mph NW3.2 kmh NW 6.0 mph9.7 kmh 30.11 in1019.6 mb 0.00 in0.0 mm 0.00 in0.0 mm 0.00 in0.0 mm
04:00 AM 50.0°F10.0°C 44.7°F7.1°C 82% 4.5 mph WNW7.2 kmh WNW 10.7 mph17.2 kmh 30.11 in1019.6 mb 0.00 in0.0 mm 0.00 in0.0 mm 0.00 in0.0 mm
03:45 AM 49.6°F9.8°C 44.7°F7.1°C 83% 4.1 mph NW6.6 kmh NW 10.7 mph17.2 kmh 30.11 in1019.6 mb 0.00 in0.0 mm 0.00 in0.0 mm 0.00 in0.0 mm
03:30 AM 50.0°F10.0°C 44.1°F6.7°C 80% 2.4 mph E3.9 kmh E 9.2 mph14.8 kmh 30.11 in1019.6 mb 0.00 in0.0 mm 0.00 in0.0 mm 0.00 in0.0 mm